createdAt,value
2023-02-23T00:02:08.514Z,100.00
2023-02-23T00:04:35.969Z,100.00
2023-02-23T00:07:03.154Z,100.00
2023-02-23T00:09:35.306Z,100.00
2023-02-23T00:12:08.037Z,100.00
2023-02-23T00:14:37.515Z,100.00
2023-02-23T00:17:04.385Z,100.00
2023-02-23T00:19:33.178Z,100.00
2023-02-23T00:21:59.661Z,100.00
2023-02-23T00:24:27.050Z,100.00
2023-02-23T00:26:56.549Z,100.00
2023-02-23T00:29:24.891Z,100.00
2023-02-23T00:31:55.961Z,100.00
2023-02-23T00:34:23.520Z,100.00
2023-02-23T00:36:54.059Z,100.00
2023-02-23T00:39:23.351Z,100.00
2023-02-23T00:41:52.172Z,100.00
2023-02-23T00:44:19.642Z,100.00
2023-02-23T00:46:51.193Z,100.00
2023-02-23T00:49:19.082Z,100.00
2023-02-23T00:51:45.617Z,100.00
2023-02-23T00:54:14.650Z,100.00
2023-02-23T00:56:41.634Z,100.00
2023-02-23T00:59:08.698Z,100.00
2023-02-23T01:01:37.350Z,100.00
2023-02-23T01:04:05.089Z,100.00
2023-02-23T01:06:31.591Z,100.00
2023-02-23T01:08:58.790Z,100.00
2023-02-23T01:11:28.220Z,100.00
2023-02-23T01:13:58.402Z,100.00
2023-02-23T01:16:30.394Z,100.00
2023-02-23T01:19:03.388Z,100.00
2023-02-23T01:21:38.627Z,100.00
2023-02-23T01:24:06.258Z,100.00
2023-02-23T01:26:37.763Z,100.00
2023-02-23T01:29:10.610Z,100.00
2023-02-23T01:31:40.875Z,100.00
2023-02-23T01:34:08.370Z,100.00
2023-02-23T01:36:37.154Z,100.00
2023-02-23T01:39:07.569Z,100.00
2023-02-23T01:41:36.402Z,100.00
2023-02-23T01:44:04.953Z,100.00
2023-02-23T01:46:36.978Z,100.00
2023-02-23T01:49:04.148Z,100.00
2023-02-23T01:51:37.095Z,100.00
2023-02-23T01:54:10.182Z,100.00
2023-02-23T01:56:45.276Z,100.00
2023-02-23T01:59:15.300Z,100.00
2023-02-23T02:01:43.121Z,100.00
2023-02-23T02:04:16.351Z,100.00
2023-02-23T02:06:46.301Z,100.00
2023-02-23T02:09:17.741Z,100.00
2023-02-23T02:11:46.415Z,100.00
2023-02-23T02:14:18.507Z,100.00
2023-02-23T02:17:02.418Z,100.00
2023-02-23T02:20:14.680Z,100.00
2023-02-23T02:23:18.126Z,100.00
2023-02-23T02:26:04.300Z,100.00
2023-02-23T02:29:14.569Z,100.00
2023-02-23T02:32:11.056Z,100.00
2023-02-23T02:34:58.893Z,100.00
2023-02-23T02:37:40.361Z,100.00
2023-02-23T02:40:30.998Z,100.00
2023-02-23T02:43:11.609Z,100.00
2023-02-23T02:45:44.329Z,100.00
2023-02-23T02:48:20.590Z,100.00
2023-02-23T02:50:55.521Z,100.00
2023-02-23T02:53:47.983Z,100.00
2023-02-23T02:56:19.732Z,100.00
2023-02-23T02:58:46.733Z,100.00
2023-02-23T03:01:33.539Z,100.00
2023-02-23T03:04:36.227Z,100.00
2023-02-23T03:07:29.067Z,100.00
2023-02-23T03:10:27.451Z,100.00
2023-02-23T03:13:22.856Z,100.00
2023-02-23T03:16:35.027Z,100.00
2023-02-23T03:19:36.329Z,100.00
2023-02-23T03:22:53.400Z,100.00
2023-02-23T03:26:00.122Z,100.00
2023-02-23T03:28:52.519Z,100.00
2023-02-23T03:32:17.335Z,100.00
2023-02-23T03:35:10.094Z,100.00
2023-02-23T03:38:06.705Z,100.00
2023-02-23T03:40:56.846Z,100.00
2023-02-23T03:43:46.678Z,100.00
2023-02-23T03:46:35.514Z,100.00
2023-02-23T03:49:27.482Z,100.00
2023-02-23T03:52:20.993Z,100.00
2023-02-23T03:55:18.521Z,100.00
2023-02-23T03:58:08.777Z,100.00
2023-02-23T04:01:01.694Z,100.00
2023-02-23T04:03:51.170Z,100.00
2023-02-23T04:06:37.981Z,100.00
2023-02-23T04:09:25.697Z,100.00
2023-02-23T04:12:19.311Z,100.00
2023-02-23T04:14:55.460Z,100.00
2023-02-23T04:17:27.054Z,100.00
2023-02-23T04:19:54.927Z,100.00
2023-02-23T04:22:22.550Z,100.00
2023-02-23T04:24:50.743Z,100.00
2023-02-23T04:27:17.707Z,100.00
2023-02-23T04:29:45.050Z,100.00
2023-02-23T04:32:18.034Z,100.00
2023-02-23T04:34:45.623Z,100.00
2023-02-23T04:37:12.909Z,100.00
2023-02-23T04:39:39.808Z,100.00
2023-02-23T04:42:06.333Z,100.00
2023-02-23T04:44:32.830Z,100.00
2023-02-23T04:46:59.251Z,100.00
2023-02-23T04:49:25.864Z,100.00
2023-02-23T04:51:52.366Z,100.00
2023-02-23T04:54:18.821Z,100.00
2023-02-23T04:56:45.276Z,100.00
2023-02-23T04:59:11.737Z,100.00
2023-02-23T05:01:38.347Z,100.00
2023-02-23T05:04:04.894Z,100.00
2023-02-23T05:06:31.877Z,100.00
2023-02-23T05:08:58.549Z,100.00
2023-02-23T05:11:26.734Z,100.00
2023-02-23T05:13:54.124Z,100.00
2023-02-23T05:16:20.748Z,100.00
2023-02-23T05:18:47.578Z,100.00
2023-02-23T05:21:14.186Z,100.00
2023-02-23T05:23:40.629Z,100.00
2023-02-23T05:26:13.117Z,100.00
2023-02-23T05:28:41.373Z,100.00
2023-02-23T05:31:08.579Z,100.00
2023-02-23T05:33:42.433Z,100.00
2023-02-23T05:36:17.043Z,100.00
2023-02-23T05:38:45.701Z,100.00
2023-02-23T05:41:19.039Z,100.00
2023-02-23T05:43:46.302Z,100.00
2023-02-23T05:46:17.025Z,100.00
2023-02-23T05:48:43.740Z,100.00
2023-02-23T05:51:12.662Z,100.00
2023-02-23T05:53:39.368Z,100.00
2023-02-23T05:56:08.084Z,100.00
2023-02-23T05:58:34.945Z,100.00
2023-02-23T06:01:01.400Z,100.00
2023-02-23T06:03:27.994Z,100.00
2023-02-23T06:05:56.898Z,100.00
2023-02-23T06:08:25.519Z,100.00
2023-02-23T06:10:52.611Z,100.00
2023-02-23T06:13:21.157Z,100.00
2023-02-23T06:15:48.431Z,100.00
2023-02-23T06:18:15.569Z,100.00
2023-02-23T06:20:41.966Z,100.00
2023-02-23T06:23:08.681Z,100.00
2023-02-23T06:25:35.189Z,100.00
2023-02-23T06:28:01.597Z,100.00
2023-02-23T06:30:28.079Z,100.00
2023-02-23T06:32:54.564Z,100.00
2023-02-23T06:35:21.621Z,100.00
2023-02-23T06:37:48.593Z,100.00
2023-02-23T06:40:15.113Z,100.00
2023-02-23T06:42:41.582Z,100.00
2023-02-23T06:45:08.545Z,100.00
2023-02-23T06:47:35.033Z,100.00
2023-02-23T06:50:03.157Z,100.00
2023-02-23T06:52:29.856Z,100.00
2023-02-23T06:54:56.551Z,100.00
2023-02-23T06:57:23.109Z,100.00
2023-02-23T06:59:49.668Z,100.00
2023-02-23T07:02:16.617Z,100.00
2023-02-23T07:04:43.568Z,100.00
2023-02-23T07:07:11.205Z,100.00
2023-02-23T07:09:39.570Z,100.00
2023-02-23T07:12:06.565Z,100.00
2023-02-23T07:14:33.240Z,100.00
2023-02-23T07:16:59.705Z,100.00
2023-02-23T07:19:26.137Z,100.00
2023-02-23T07:21:53.513Z,100.00
2023-02-23T07:24:20.118Z,100.00
2023-02-23T07:26:47.298Z,100.00
2023-02-23T07:29:13.887Z,100.00
2023-02-23T07:31:41.147Z,100.00
2023-02-23T07:34:09.295Z,100.00
2023-02-23T07:36:36.033Z,100.00
2023-02-23T07:39:04.767Z,100.00
2023-02-23T07:41:31.729Z,100.00
2023-02-23T07:44:00.118Z,100.00
2023-02-23T07:46:26.687Z,100.00
2023-02-23T07:48:53.279Z,100.00
2023-02-23T07:51:20.376Z,100.00
2023-02-23T07:53:47.121Z,100.00
2023-02-23T07:56:13.642Z,100.00
2023-02-23T07:58:42.277Z,100.00
2023-02-23T08:01:10.497Z,100.00
2023-02-23T08:03:36.999Z,100.00
2023-02-23T08:06:03.723Z,100.00
2023-02-23T08:08:30.198Z,100.00
2023-02-23T08:11:04.626Z,100.00
2023-02-23T08:13:32.421Z,100.00
2023-02-23T08:15:59.610Z,100.00
2023-02-23T08:18:26.278Z,100.00
2023-02-23T08:20:59.187Z,100.00
2023-02-23T08:23:25.770Z,100.00
2023-02-23T08:25:54.696Z,100.00
2023-02-23T08:28:25.161Z,100.00
2023-02-23T08:30:52.216Z,100.00
2023-02-23T08:33:18.931Z,100.00
2023-02-23T08:35:45.555Z,100.00
2023-02-23T08:38:12.093Z,100.00
2023-02-23T08:40:38.739Z,100.00
2023-02-23T08:43:05.233Z,100.00
2023-02-23T08:45:31.742Z,100.00
2023-02-23T08:47:58.158Z,100.00
2023-02-23T08:50:27.278Z,100.00
2023-02-23T08:52:54.131Z,100.00
2023-02-23T08:55:21.749Z,100.00
2023-02-23T08:57:50.482Z,100.00
2023-02-23T09:00:17.577Z,100.00
2023-02-23T09:02:47.615Z,100.00
2023-02-23T09:05:14.650Z,100.00
2023-02-23T09:07:44.846Z,100.00
2023-02-23T09:10:14.072Z,100.00
2023-02-23T09:12:40.637Z,100.00
2023-02-23T09:15:07.974Z,100.00
2023-02-23T09:17:34.443Z,100.00
2023-02-23T09:20:00.876Z,100.00
2023-02-23T09:22:27.352Z,100.00
2023-02-23T09:24:53.853Z,100.00
2023-02-23T09:27:20.389Z,100.00
2023-02-23T09:29:47.012Z,100.00
2023-02-23T09:32:13.751Z,100.00
2023-02-23T09:34:40.253Z,100.00
2023-02-23T09:37:06.798Z,100.00
2023-02-23T09:39:38.642Z,100.00
2023-02-23T09:42:30.557Z,100.00
2023-02-23T09:45:22.582Z,100.00
2023-02-23T09:48:01.133Z,100.00
2023-02-23T09:50:29.841Z,100.00
2023-02-23T09:53:05.407Z,100.00
2023-02-23T09:55:32.667Z,100.00
2023-02-23T09:58:08.044Z,100.00
2023-02-23T10:00:45.431Z,100.00
2023-02-23T10:03:19.385Z,100.00
2023-02-23T10:05:52.101Z,100.00
2023-02-23T10:08:37.153Z,100.00
2023-02-23T10:11:23.340Z,100.00
2023-02-23T10:13:53.973Z,100.00
2023-02-23T10:16:29.937Z,100.00
2023-02-23T10:19:06.306Z,100.00
2023-02-23T10:21:45.230Z,100.00
2023-02-23T10:24:26.856Z,100.00
2023-02-23T10:27:16.421Z,100.00
2023-02-23T10:29:48.477Z,100.00
2023-02-23T10:32:22.431Z,100.00
2023-02-23T10:34:53.937Z,100.00
2023-02-23T10:37:20.923Z,100.00
2023-02-23T10:39:49.854Z,100.00
2023-02-23T10:42:21.825Z,100.00
2023-02-23T10:44:49.951Z,100.00
2023-02-23T10:47:22.864Z,100.00
2023-02-23T10:49:52.329Z,100.00
2023-02-23T10:52:24.368Z,100.00
2023-02-23T10:54:52.102Z,100.00
2023-02-23T10:57:34.143Z,100.00
2023-02-23T11:00:15.935Z,100.00
2023-02-23T11:02:43.951Z,100.00
2023-02-23T11:05:33.656Z,100.00
2023-02-23T11:08:20.538Z,100.00
2023-02-23T11:10:56.204Z,100.00
2023-02-23T11:13:24.204Z,100.00
2023-02-23T11:15:59.399Z,99.73
2023-02-23T11:18:26.520Z,100.00
2023-02-23T11:20:53.385Z,99.59
2023-02-23T11:23:30.203Z,99.35
2023-02-23T11:26:17.150Z,99.52
2023-02-23T11:28:53.806Z,99.28
2023-02-23T11:31:28.316Z,98.36
2023-02-23T11:33:56.340Z,97.86
2023-02-23T11:36:22.732Z,97.64
2023-02-23T11:39:15.726Z,97.74
2023-02-23T11:41:42.333Z,97.79
2023-02-23T11:44:19.587Z,97.96
2023-02-23T11:46:46.731Z,98.03
2023-02-23T11:49:29.272Z,98.10
2023-02-23T11:51:56.208Z,97.68
2023-02-23T11:54:33.220Z,97.50
2023-02-23T11:57:02.573Z,97.47
2023-02-23T11:59:38.866Z,97.66
2023-02-23T12:02:30.358Z,97.18
2023-02-23T12:05:08.262Z,97.13
2023-02-23T12:07:43.753Z,97.32
2023-02-23T12:10:24.896Z,97.92
2023-02-23T12:13:07.261Z,98.02
2023-02-23T12:15:50.436Z,98.25
2023-02-23T12:18:39.428Z,97.50
2023-02-23T12:21:24.320Z,97.13
2023-02-23T12:24:03.390Z,97.13
2023-02-23T12:26:34.015Z,97.04
2023-02-23T12:29:05.849Z,96.52
2023-02-23T12:31:50.093Z,96.97
2023-02-23T12:34:27.483Z,96.65
2023-02-23T12:37:13.584Z,96.41
2023-02-23T12:39:44.879Z,95.60
2023-02-23T12:42:24.712Z,95.91
2023-02-23T12:44:58.718Z,95.33
2023-02-23T12:47:37.324Z,95.28
2023-02-23T12:50:56.077Z,95.53
2023-02-23T12:53:29.059Z,95.36
2023-02-23T12:56:27.363Z,94.83
2023-02-23T12:59:06.716Z,94.14
2023-02-23T13:02:01.195Z,94.61
2023-02-23T13:05:25.401Z,94.59
2023-02-23T13:08:13.567Z,94.15
2023-02-23T13:10:51.722Z,94.02
2023-02-23T13:13:39.846Z,93.75
2023-02-23T13:16:14.245Z,92.91
2023-02-23T13:18:49.852Z,92.86
2023-02-23T13:21:37.365Z,93.31
2023-02-23T13:24:10.833Z,93.20
2023-02-23T13:26:48.665Z,93.36
2023-02-23T13:29:31.686Z,92.43
2023-02-23T13:32:01.243Z,91.46
2023-02-23T13:34:33.087Z,91.97
2023-02-23T13:37:02.888Z,91.42
2023-02-23T13:39:40.759Z,90.47
2023-02-23T13:42:26.341Z,90.53
2023-02-23T13:45:18.528Z,90.34
2023-02-23T13:47:53.192Z,89.85
2023-02-23T13:50:29.893Z,90.06
2023-02-23T13:53:01.796Z,90.09
2023-02-23T13:55:37.216Z,90.21
2023-02-23T13:58:19.997Z,90.46
2023-02-23T14:00:54.629Z,91.02
2023-02-23T14:03:28.960Z,91.34
2023-02-23T14:06:00.220Z,91.63
2023-02-23T14:08:37.378Z,91.54
2023-02-23T14:11:06.072Z,91.50
2023-02-23T14:13:35.004Z,91.74
2023-02-23T14:16:27.906Z,91.60
2023-02-23T14:19:31.579Z,91.59
2023-02-23T14:22:06.524Z,91.50
2023-02-23T14:24:33.055Z,91.48
2023-02-23T14:27:30.644Z,91.81
2023-02-23T14:30:10.363Z,92.29
2023-02-23T14:32:41.655Z,91.77
2023-02-23T14:35:32.829Z,92.31
2023-02-23T14:38:11.852Z,92.32
2023-02-23T14:40:46.956Z,91.80
2023-02-23T14:43:38.200Z,92.00
2023-02-23T14:46:11.453Z,91.87
2023-02-23T14:48:41.688Z,92.31
2023-02-23T14:51:17.121Z,92.48
2023-02-23T14:53:43.671Z,91.96
2023-02-23T14:56:21.755Z,91.98
2023-02-23T14:58:53.882Z,91.69
2023-02-23T15:01:34.020Z,91.68
2023-02-23T15:04:17.149Z,91.48
2023-02-23T15:06:46.949Z,91.16
2023-02-23T15:09:19.621Z,91.59
2023-02-23T15:11:49.936Z,91.72
2023-02-23T15:14:27.622Z,92.27
2023-02-23T15:16:56.645Z,92.49
2023-02-23T15:19:27.821Z,92.50
2023-02-23T15:21:56.919Z,93.58
2023-02-23T15:24:27.795Z,94.43
2023-02-23T15:26:57.705Z,95.00
2023-02-23T15:29:30.173Z,95.75
2023-02-23T15:31:57.991Z,96.40
2023-02-23T15:34:26.959Z,96.91
2023-02-23T15:37:00.905Z,97.19
2023-02-23T15:39:39.930Z,97.52
2023-02-23T15:42:11.871Z,97.87
2023-02-23T15:44:44.330Z,98.17
2023-02-23T15:47:23.272Z,98.25
2023-02-23T15:49:50.265Z,98.37
2023-02-23T15:52:23.926Z,98.56
2023-02-23T15:54:59.928Z,99.14
2023-02-23T15:57:32.731Z,99.24
2023-02-23T16:00:01.878Z,99.59
2023-02-23T16:02:29.827Z,99.77
2023-02-23T16:04:57.581Z,99.78
2023-02-23T16:07:40.230Z,99.98
2023-02-23T16:10:25.161Z,100.00
2023-02-23T16:12:53.173Z,100.00
2023-02-23T16:15:33.267Z,100.00
2023-02-23T16:18:05.543Z,100.00
2023-02-23T16:20:38.388Z,100.00
2023-02-23T16:23:07.103Z,100.00
2023-02-23T16:25:34.978Z,100.00
2023-02-23T16:28:08.082Z,100.00
2023-02-23T16:30:41.071Z,100.00
2023-02-23T16:33:21.239Z,100.00
2023-02-23T16:35:55.383Z,100.00
2023-02-23T16:38:32.780Z,100.00
2023-02-23T16:40:59.425Z,99.31
2023-02-23T16:43:26.671Z,99.18
2023-02-23T16:45:53.470Z,98.83
2023-02-23T16:48:20.147Z,98.41
2023-02-23T16:50:47.758Z,98.50
2023-02-23T16:53:15.316Z,99.03
2023-02-23T16:55:50.640Z,99.46
2023-02-23T16:58:20.760Z,99.80
2023-02-23T17:00:47.948Z,100.00
2023-02-23T17:03:43.855Z,99.99
2023-02-23T17:06:13.959Z,100.00
2023-02-23T17:08:45.907Z,100.00
2023-02-23T17:11:18.965Z,100.00
2023-02-23T17:13:45.660Z,99.74
2023-02-23T17:16:13.434Z,99.57
2023-02-23T17:18:42.949Z,99.29
2023-02-23T17:21:12.875Z,99.34
2023-02-23T17:23:50.986Z,99.16
2023-02-23T17:26:19.886Z,99.19
2023-02-23T17:28:46.831Z,98.98
2023-02-23T17:31:15.524Z,98.73
2023-02-23T17:33:43.293Z,98.80
2023-02-23T17:36:15.329Z,98.82
2023-02-23T17:38:44.055Z,98.66
2023-02-23T17:41:16.071Z,98.19
2023-02-23T17:43:42.917Z,98.02
2023-02-23T17:46:10.408Z,98.07
2023-02-23T17:48:37.031Z,98.27
2023-02-23T17:51:08.317Z,98.34
2023-02-23T17:53:35.422Z,98.16
2023-02-23T17:56:01.974Z,97.99
2023-02-23T17:58:28.456Z,97.24
2023-02-23T18:00:59.960Z,96.86
2023-02-23T18:03:34.605Z,96.73
2023-02-23T18:06:03.028Z,96.72
2023-02-23T18:08:29.951Z,96.33
2023-02-23T18:10:57.223Z,96.38
2023-02-23T18:13:25.447Z,96.04
2023-02-23T18:15:58.614Z,95.62
2023-02-23T18:18:25.225Z,95.12
2023-02-23T18:20:57.052Z,94.96
2023-02-23T18:23:24.465Z,95.37
2023-02-23T18:25:51.007Z,95.12
2023-02-23T18:28:18.445Z,94.97
2023-02-23T18:30:45.017Z,94.64
2023-02-23T18:33:12.250Z,94.23
2023-02-23T18:35:41.670Z,94.18
2023-02-23T18:38:11.609Z,93.94
2023-02-23T18:40:38.928Z,93.58
2023-02-23T18:43:06.237Z,93.57
2023-02-23T18:45:33.814Z,93.25
2023-02-23T18:48:00.536Z,92.59
2023-02-23T18:50:27.225Z,92.74
2023-02-23T18:52:56.085Z,92.68
2023-02-23T18:55:23.017Z,92.65
2023-02-23T18:57:50.806Z,91.80
2023-02-23T19:00:19.301Z,91.45
2023-02-23T19:02:49.184Z,91.37
2023-02-23T19:05:17.313Z,91.06
2023-02-23T19:07:44.276Z,90.26
2023-02-23T19:10:14.759Z,89.54
2023-02-23T19:12:41.551Z,88.89
2023-02-23T19:15:09.247Z,88.64
2023-02-23T19:17:36.551Z,88.61
2023-02-23T19:20:07.891Z,88.13
2023-02-23T19:22:34.722Z,87.76
2023-02-23T19:25:01.247Z,87.84
2023-02-23T19:27:27.781Z,87.62
2023-02-23T19:29:54.212Z,87.76
2023-02-23T19:32:20.920Z,87.70
2023-02-23T19:34:47.657Z,87.95
2023-02-23T19:37:14.495Z,87.92
2023-02-23T19:39:41.138Z,88.19
2023-02-23T19:42:08.587Z,88.16
2023-02-23T19:44:35.027Z,88.64
2023-02-23T19:47:01.560Z,88.57
2023-02-23T19:49:28.129Z,89.39
2023-02-23T19:51:54.618Z,89.69
2023-02-23T19:54:21.183Z,89.61
2023-02-23T19:56:49.767Z,89.75
2023-02-23T19:59:16.432Z,90.17
2023-02-23T20:01:45.197Z,90.42
2023-02-23T20:04:11.734Z,90.58
2023-02-23T20:06:47.142Z,90.29
2023-02-23T20:09:14.668Z,90.08
2023-02-23T20:11:42.561Z,90.09
2023-02-23T20:14:09.727Z,90.39
2023-02-23T20:16:36.755Z,90.91
2023-02-23T20:19:06.445Z,90.34
2023-02-23T20:21:33.766Z,90.00
2023-02-23T20:24:01.634Z,90.19
2023-02-23T20:26:34.010Z,90.19
2023-02-23T20:29:01.597Z,90.54
2023-02-23T20:31:36.026Z,90.36
2023-02-23T20:34:05.908Z,91.14
2023-02-23T20:36:32.487Z,90.95
2023-02-23T20:38:59.025Z,91.06
2023-02-23T20:41:27.980Z,90.97
2023-02-23T20:43:55.286Z,90.92
2023-02-23T20:46:21.974Z,90.72
2023-02-23T20:48:48.955Z,90.63
2023-02-23T20:51:18.836Z,91.22
2023-02-23T20:53:47.055Z,91.48
2023-02-23T20:56:16.674Z,91.43
2023-02-23T20:58:43.657Z,91.14
2023-02-23T21:01:15.427Z,91.35
2023-02-23T21:03:41.866Z,91.70
2023-02-23T21:06:08.360Z,91.42
2023-02-23T21:08:39.736Z,91.84
2023-02-23T21:11:07.690Z,91.56
2023-02-23T21:13:35.120Z,92.46
2023-02-23T21:16:02.944Z,93.11
2023-02-23T21:18:30.867Z,93.43
2023-02-23T21:20:59.280Z,93.32
2023-02-23T21:23:25.908Z,93.74
2023-02-23T21:25:53.098Z,94.17
2023-02-23T21:28:20.691Z,93.89
2023-02-23T21:30:47.510Z,94.23
2023-02-23T21:33:14.725Z,94.31
2023-02-23T21:35:41.249Z,94.54
2023-02-23T21:38:08.192Z,94.68
2023-02-23T21:40:35.654Z,94.53
2023-02-23T21:43:06.521Z,94.67
2023-02-23T21:45:33.103Z,95.17
2023-02-23T21:47:59.534Z,95.24
2023-02-23T21:50:26.150Z,95.17
2023-02-23T21:52:56.006Z,95.16
2023-02-23T21:55:22.858Z,95.27
2023-02-23T21:57:50.723Z,95.49
2023-02-23T22:00:18.857Z,95.26
2023-02-23T22:02:46.597Z,95.41
2023-02-23T22:05:15.170Z,95.30
2023-02-23T22:07:47.042Z,95.45
2023-02-23T22:10:13.676Z,95.52
2023-02-23T22:12:40.315Z,95.62
2023-02-23T22:15:07.722Z,95.63
2023-02-23T22:17:36.092Z,95.85
2023-02-23T22:20:05.536Z,95.72
2023-02-23T22:22:36.137Z,95.86
2023-02-23T22:25:04.665Z,95.90
2023-02-23T22:27:32.243Z,95.76
2023-02-23T22:30:01.452Z,95.96
2023-02-23T22:32:32.547Z,96.41
2023-02-23T22:35:00.221Z,96.39
2023-02-23T22:37:29.866Z,96.39
2023-02-23T22:39:57.848Z,96.34
2023-02-23T22:42:24.573Z,96.65
2023-02-23T22:44:51.373Z,96.54
2023-02-23T22:47:17.973Z,96.87
2023-02-23T22:49:47.491Z,96.73
2023-02-23T22:52:14.114Z,96.49
2023-02-23T22:54:43.769Z,96.73
2023-02-23T22:57:10.497Z,96.65
2023-02-23T22:59:37.296Z,96.74
2023-02-23T23:02:04.643Z,97.19
2023-02-23T23:04:34.285Z,96.85
2023-02-23T23:07:01.187Z,96.80
2023-02-23T23:09:28.165Z,96.96
2023-02-23T23:11:56.669Z,96.72
2023-02-23T23:14:23.823Z,96.84
2023-02-23T23:16:50.635Z,96.90
2023-02-23T23:19:23.813Z,96.69
2023-02-23T23:21:55.941Z,96.70
2023-02-23T23:24:24.372Z,97.11
2023-02-23T23:26:55.579Z,96.77
2023-02-23T23:29:25.723Z,96.92
2023-02-23T23:31:53.215Z,96.91
2023-02-23T23:34:22.788Z,96.75
2023-02-23T23:36:50.155Z,96.75
2023-02-23T23:39:20.264Z,96.47
2023-02-23T23:41:48.257Z,96.82
2023-02-23T23:44:20.992Z,96.96
2023-02-23T23:46:50.585Z,96.81
2023-02-23T23:49:20.105Z,96.81
2023-02-23T23:51:50.115Z,97.01
2023-02-23T23:54:26.153Z,97.05
2023-02-23T23:56:53.277Z,97.25
2023-02-23T23:59:22.787Z,97.12
